Antigo, Wisconsin
Current Conditions -  °F | °C
As of 11:55 AM on Friday 31 Oct 2014 (Local Time) from KAIG Reporting Station
Overcast Overcast  
Wind Chill: 17°   Ceiling: 3700
Heat Index: 31°   Visibility: 10mi
Dew Point: 21°   Wind: 24mph
Humidity: 67%   Direction: 10°N
Pressure: 30.36"   Gusts: 32mph
Location:  45.14°N, 89.15°W
Report Text: KAIG 311655Z AUTO 01021G28KT 10SM OVC037 M01/M06 A3036 RMK AO2 T10061061
Loading
Personal Weather Stations






























Interactive Weather Map New forecast layout! Learn more

10-Day Weather Forecast

Advertisements
Track Severe Weather on mobile